createdAt,value
2019-03-11T00:00:28.854Z,2.20
2019-03-11T00:01:28.845Z,2.30
2019-03-11T00:02:28.879Z,2.30
2019-03-11T00:03:28.829Z,2.30
2019-03-11T00:04:28.815Z,2.20
2019-03-11T00:05:28.805Z,2.20
2019-03-11T00:06:28.794Z,2.40
2019-03-11T00:07:28.785Z,2.00
2019-03-11T00:08:28.781Z,2.40
2019-03-11T00:09:28.767Z,2.40
2019-03-11T00:10:28.755Z,2.20
2019-03-11T00:11:28.741Z,2.10
2019-03-11T00:12:39.288Z,2.00
2019-03-11T00:13:28.723Z,2.10
2019-03-11T00:14:28.716Z,2.10
2019-03-11T00:15:28.704Z,2.30
2019-03-11T00:16:28.688Z,2.00
2019-03-11T00:17:28.687Z,2.10
2019-03-11T00:18:28.687Z,2.00
2019-03-11T00:19:28.662Z,1.90
2019-03-11T00:20:28.659Z,2.00
2019-03-11T00:21:28.641Z,2.20
2019-03-11T00:22:28.629Z,2.10
2019-03-11T00:23:28.630Z,1.90
2019-03-11T00:24:28.626Z,2.00
2019-03-11T00:25:28.606Z,2.10
2019-03-11T00:26:28.589Z,2.30
2019-03-11T00:27:28.578Z,1.80
2019-03-11T00:28:28.577Z,2.30
2019-03-11T00:29:28.566Z,1.90
2019-03-11T00:30:28.594Z,2.00
2019-03-11T00:31:28.539Z,2.00
2019-03-11T00:32:28.529Z,1.80
2019-03-11T00:33:28.522Z,2.20
2019-03-11T00:34:28.509Z,1.70
2019-03-11T00:35:28.501Z,2.30
2019-03-11T00:36:28.526Z,2.10
2019-03-11T00:37:28.478Z,2.10
2019-03-11T00:38:28.468Z,2.20
2019-03-11T00:39:28.460Z,1.80
2019-03-11T00:40:28.453Z,1.90
2019-03-11T00:41:28.447Z,1.90
2019-03-11T00:42:28.446Z,2.10
2019-03-11T00:43:38.750Z,2.20
2019-03-11T00:44:28.404Z,2.30
2019-03-11T00:45:28.396Z,2.10
2019-03-11T00:46:28.390Z,2.30
2019-03-11T00:47:28.397Z,2.60
2019-03-11T00:48:28.365Z,2.30
2019-03-11T00:49:28.387Z,2.20
2019-03-11T00:50:28.354Z,2.10
2019-03-11T00:51:28.340Z,1.90
2019-03-11T00:52:28.349Z,2.50
2019-03-11T00:53:28.355Z,2.40
2019-03-11T00:54:28.313Z,1.90
2019-03-11T00:55:28.293Z,1.90
2019-03-11T00:56:28.288Z,2.10
2019-03-11T00:57:28.273Z,2.00
2019-03-11T00:58:28.271Z,2.10
2019-03-11T00:59:28.302Z,2.30
2019-03-11T01:00:28.249Z,1.90
2019-03-11T01:01:28.239Z,2.40
2019-03-11T01:02:28.226Z,1.80
2019-03-11T01:03:28.212Z,1.90
2019-03-11T01:04:28.204Z,2.00
2019-03-11T01:05:28.233Z,2.10
2019-03-11T01:06:28.189Z,2.00
2019-03-11T01:07:28.182Z,1.90
2019-03-11T01:08:29.199Z,1.90
2019-03-11T01:09:28.155Z,1.60
2019-03-11T01:10:28.148Z,1.80
2019-03-11T01:11:28.156Z,1.80
2019-03-11T01:12:28.129Z,2.30
2019-03-11T01:13:28.187Z,1.80
2019-03-11T01:14:40.101Z,1.60
2019-03-11T01:15:28.092Z,2.10
2019-03-11T01:16:28.081Z,2.10
2019-03-11T01:17:28.110Z,2.10
2019-03-11T01:18:28.060Z,2.00
2019-03-11T01:19:28.060Z,2.10
2019-03-11T01:20:28.041Z,1.90
2019-03-11T01:21:28.034Z,2.30
2019-03-11T01:22:28.023Z,2.00
2019-03-11T01:23:28.055Z,2.10
2019-03-11T01:24:28.013Z,1.70
2019-03-11T01:25:27.995Z,1.80
2019-03-11T01:26:27.991Z,2.00
2019-03-11T01:27:27.969Z,2.00
2019-03-11T01:28:27.958Z,2.10
2019-03-11T01:29:27.966Z,1.70
2019-03-11T01:30:27.944Z,2.10
2019-03-11T01:31:27.983Z,2.30
2019-03-11T01:32:27.930Z,1.80
2019-03-11T01:33:27.917Z,1.90
2019-03-11T01:34:27.903Z,1.70
2019-03-11T01:35:27.927Z,2.10
2019-03-11T01:36:28.753Z,2.10
2019-03-11T01:37:27.876Z,2.30
2019-03-11T01:38:27.864Z,2.20
2019-03-11T01:39:27.855Z,1.80
2019-03-11T01:40:27.845Z,1.90
2019-03-11T01:41:27.854Z,1.60
2019-03-11T01:42:27.819Z,1.90
2019-03-11T01:43:27.817Z,1.70
2019-03-11T01:44:27.799Z,1.80
2019-03-11T01:45:38.155Z,1.90
2019-03-11T01:46:27.785Z,2.10
2019-03-11T01:47:27.822Z,1.80
2019-03-11T01:48:27.760Z,2.00
2019-03-11T01:49:27.755Z,1.70
2019-03-11T01:50:27.749Z,1.90
2019-03-11T01:51:27.760Z,2.00
2019-03-11T01:52:27.723Z,2.00
2019-03-11T01:53:27.752Z,1.60
2019-03-11T01:54:27.700Z,1.90
2019-03-11T01:55:27.696Z,1.80
2019-03-11T01:56:27.676Z,1.70
2019-03-11T01:57:27.672Z,1.70
2019-03-11T01:58:27.665Z,2.10
2019-03-11T01:59:27.657Z,1.70
2019-03-11T02:00:27.644Z,2.10
2019-03-11T02:01:27.636Z,1.80
2019-03-11T02:02:27.617Z,1.60
2019-03-11T02:03:27.603Z,1.90
2019-03-11T02:04:27.634Z,1.80
2019-03-11T02:05:27.586Z,1.80
2019-03-11T02:06:27.577Z,1.60
2019-03-11T02:07:27.564Z,1.70
2019-03-11T02:08:27.561Z,1.50
2019-03-11T02:09:27.543Z,1.80
2019-03-11T02:10:27.578Z,1.60
2019-03-11T02:11:27.531Z,1.80
2019-03-11T02:12:27.513Z,1.50
2019-03-11T02:13:27.501Z,1.50
2019-03-11T02:14:27.492Z,1.50
2019-03-11T02:15:27.486Z,1.80
2019-03-11T02:16:37.817Z,1.60
2019-03-11T02:17:27.466Z,1.80
2019-03-11T02:18:27.450Z,1.80
2019-03-11T02:19:27.445Z,1.60
2019-03-11T02:20:27.434Z,1.70
2019-03-11T02:21:27.428Z,1.80
2019-03-11T02:22:27.502Z,1.90
2019-03-11T02:23:27.402Z,1.60
2019-03-11T02:24:27.391Z,2.00
2019-03-11T02:25:27.383Z,1.80
2019-03-11T02:26:27.369Z,1.50
2019-03-11T02:27:27.365Z,1.40
2019-03-11T02:28:27.389Z,1.70
2019-03-11T02:29:27.343Z,1.70
2019-03-11T02:30:27.336Z,1.80
2019-03-11T02:31:27.324Z,1.60
2019-03-11T02:32:28.680Z,1.80
2019-03-11T02:33:27.306Z,1.50
2019-03-11T02:34:27.305Z,1.60
2019-03-11T02:35:27.289Z,2.00
2019-03-11T02:36:27.270Z,1.60
2019-03-11T02:37:27.261Z,1.50
2019-03-11T02:38:27.265Z,1.80
2019-03-11T02:39:27.242Z,1.60
2019-03-11T02:40:27.243Z,1.70
2019-03-11T02:41:27.220Z,2.00
2019-03-11T02:42:27.240Z,1.50
2019-03-11T02:43:27.197Z,1.60
2019-03-11T02:44:27.190Z,1.60
2019-03-11T02:45:27.247Z,1.50
2019-03-11T02:46:27.179Z,1.70
2019-03-11T02:47:37.111Z,1.60
2019-03-11T02:48:27.145Z,1.70
2019-03-11T02:49:27.143Z,1.80
2019-03-11T02:50:27.136Z,1.70
2019-03-11T02:51:27.158Z,1.50
2019-03-11T02:52:27.113Z,1.60
2019-03-11T02:53:27.104Z,2.00
2019-03-11T02:54:27.089Z,1.50
2019-03-11T02:55:27.096Z,1.70
2019-03-11T02:56:27.079Z,1.50
2019-03-11T02:57:27.100Z,1.50
2019-03-11T02:58:27.048Z,1.80
2019-03-11T02:59:27.034Z,1.50
2019-03-11T03:00:27.025Z,1.70
2019-03-11T03:01:27.025Z,1.90
2019-03-11T03:02:27.009Z,1.60
2019-03-11T03:03:27.046Z,1.60
2019-03-11T03:04:26.996Z,1.60
2019-03-11T03:05:26.987Z,1.60
2019-03-11T03:06:26.967Z,1.70
2019-03-11T03:07:26.965Z,1.40
2019-03-11T03:08:26.950Z,1.70
2019-03-11T03:09:26.975Z,1.70
2019-03-11T03:10:26.929Z,1.70
2019-03-11T03:11:26.912Z,2.00
2019-03-11T03:12:26.904Z,1.70
2019-03-11T03:13:26.893Z,1.80
2019-03-11T03:14:26.888Z,1.80
2019-03-11T03:15:26.887Z,1.70
2019-03-11T03:16:26.869Z,1.90
2019-03-11T03:17:26.858Z,1.90
2019-03-11T03:18:37.388Z,1.90
2019-03-11T03:19:26.836Z,1.70
2019-03-11T03:20:26.846Z,1.70
2019-03-11T03:21:26.812Z,1.50
2019-03-11T03:22:26.810Z,1.70
2019-03-11T03:23:26.792Z,1.80
2019-03-11T03:24:26.783Z,1.70
2019-03-11T03:25:33.906Z,1.80
2019-03-11T03:26:27.784Z,1.90
2019-03-11T03:27:26.752Z,1.70
2019-03-11T03:28:26.750Z,1.90
2019-03-11T03:29:26.731Z,1.50
2019-03-11T03:30:26.776Z,1.60
2019-03-11T03:31:26.716Z,1.40
2019-03-11T03:32:26.753Z,1.80
2019-03-11T03:33:26.691Z,1.90
2019-03-11T03:34:26.730Z,2.00
2019-03-11T03:35:26.675Z,1.90
2019-03-11T03:36:26.669Z,1.90
2019-03-11T03:37:26.660Z,1.80
2019-03-11T03:38:30.841Z,1.90
2019-03-11T03:39:26.638Z,1.70
2019-03-11T03:40:26.624Z,2.00
2019-03-11T03:41:26.614Z,2.00
2019-03-11T03:42:26.603Z,1.70
2019-03-11T03:43:26.591Z,1.80
2019-03-11T03:44:26.591Z,2.00
2019-03-11T03:45:26.571Z,1.60
2019-03-11T03:46:26.568Z,1.90
2019-03-11T03:47:26.553Z,1.80
2019-03-11T03:48:27.419Z,1.80
2019-03-11T03:49:37.379Z,1.90
2019-03-11T03:50:26.554Z,1.60
2019-03-11T03:51:26.510Z,1.60
2019-03-11T03:52:26.499Z,1.60
2019-03-11T03:53:26.489Z,1.80
2019-03-11T03:54:26.481Z,2.00
2019-03-11T03:55:26.508Z,1.60
2019-03-11T03:56:26.456Z,1.60
2019-03-11T03:57:26.448Z,2.10
2019-03-11T03:58:26.439Z,1.70
2019-03-11T03:59:26.433Z,1.70
2019-03-11T04:00:26.419Z,1.70
2019-03-11T04:01:26.442Z,1.60
2019-03-11T04:02:26.403Z,1.80
2019-03-11T04:03:26.430Z,1.80
2019-03-11T04:04:26.376Z,2.10
2019-03-11T04:05:26.372Z,1.90
2019-03-11T04:06:26.368Z,2.00
2019-03-11T04:07:26.399Z,1.70
2019-03-11T04:08:26.338Z,1.90
2019-03-11T04:09:26.329Z,1.60
2019-03-11T04:10:26.331Z,2.10
2019-03-11T04:11:26.305Z,1.60
2019-03-11T04:12:26.292Z,1.70
2019-03-11T04:13:26.313Z,1.50
2019-03-11T04:14:26.292Z,1.70
2019-03-11T04:15:26.263Z,1.80
2019-03-11T04:16:26.263Z,2.10
2019-03-11T04:17:26.254Z,1.90
2019-03-11T04:18:26.235Z,1.90
2019-03-11T04:19:29.117Z,2.20
2019-03-11T04:20:36.201Z,2.00
2019-03-11T04:21:26.206Z,2.30
2019-03-11T04:22:26.201Z,2.60
2019-03-11T04:23:26.186Z,2.20
2019-03-11T04:24:26.175Z,1.90
2019-03-11T04:25:26.178Z,2.20
2019-03-11T04:26:26.159Z,2.00
2019-03-11T04:27:26.143Z,2.40
2019-03-11T04:28:26.135Z,2.10
2019-03-11T04:29:26.130Z,2.10
2019-03-11T04:30:26.130Z,2.20
2019-03-11T04:31:26.102Z,2.10
2019-03-11T04:32:26.163Z,2.10
2019-03-11T04:33:26.080Z,2.30
2019-03-11T04:34:26.076Z,2.20
2019-03-11T04:35:26.073Z,1.90
2019-03-11T04:36:26.120Z,2.30
2019-03-11T04:37:26.042Z,2.20
2019-03-11T04:38:26.027Z,1.90
2019-03-11T04:39:26.019Z,2.10
2019-03-11T04:40:26.047Z,2.10
2019-03-11T04:41:26.004Z,2.00
2019-03-11T04:42:26.007Z,2.40
2019-03-11T04:43:25.981Z,2.30
2019-03-11T04:44:25.973Z,1.70
2019-03-11T04:45:25.960Z,2.20
2019-03-11T04:46:25.950Z,2.00
2019-03-11T04:47:25.935Z,1.90
2019-03-11T04:48:25.948Z,2.20
2019-03-11T04:49:25.925Z,1.90
2019-03-11T04:50:25.905Z,2.20
2019-03-11T04:51:36.179Z,2.10
2019-03-11T04:52:25.885Z,2.10
2019-03-11T04:53:25.875Z,2.00
2019-03-11T04:54:25.906Z,2.20
2019-03-11T04:55:25.855Z,2.20
2019-03-11T04:56:25.852Z,2.40
2019-03-11T04:57:25.838Z,2.00
2019-03-11T04:58:25.832Z,2.30
2019-03-11T04:59:25.821Z,2.30
2019-03-11T05:00:25.849Z,2.20
2019-03-11T05:01:25.800Z,2.10
2019-03-11T05:02:25.785Z,2.20
2019-03-11T05:03:25.780Z,2.10
2019-03-11T05:04:25.781Z,2.00
2019-03-11T05:05:25.768Z,2.20
2019-03-11T05:06:25.793Z,2.00
2019-03-11T05:07:25.753Z,2.20
2019-03-11T05:08:25.724Z,2.00
2019-03-11T05:09:25.720Z,1.90
2019-03-11T05:10:25.710Z,2.00
2019-03-11T05:11:25.701Z,2.00
2019-03-11T05:12:25.725Z,2.10
2019-03-11T05:13:25.684Z,1.70
2019-03-11T05:14:25.670Z,2.20
2019-03-11T05:15:25.653Z,2.30
2019-03-11T05:16:25.650Z,2.00
2019-03-11T05:17:25.636Z,2.40
2019-03-11T05:18:25.666Z,2.30
2019-03-11T05:19:25.619Z,1.90
2019-03-11T05:20:25.617Z,2.20
2019-03-11T05:21:25.602Z,2.40
2019-03-11T05:22:35.932Z,2.30
2019-03-11T05:23:25.578Z,2.30
2019-03-11T05:24:25.581Z,2.60
2019-03-11T05:25:25.560Z,2.70
2019-03-11T05:26:25.545Z,2.20
2019-03-11T05:27:25.542Z,2.40
2019-03-11T05:28:25.525Z,2.50
2019-03-11T05:29:25.512Z,2.40
2019-03-11T05:30:25.546Z,2.00
2019-03-11T05:31:25.505Z,2.40
2019-03-11T05:32:25.493Z,2.20
2019-03-11T05:33:25.475Z,2.40
2019-03-11T05:34:25.483Z,2.40
2019-03-11T05:35:25.455Z,2.00
2019-03-11T05:36:25.464Z,2.30
2019-03-11T05:37:25.513Z,2.10
2019-03-11T05:38:25.426Z,2.40
2019-03-11T05:39:25.413Z,2.40
2019-03-11T05:40:25.408Z,2.20
2019-03-11T05:41:25.396Z,2.70
2019-03-11T05:42:25.422Z,2.30
2019-03-11T05:43:25.379Z,2.20
2019-03-11T05:44:25.369Z,2.20
2019-03-11T05:45:25.361Z,2.30
2019-03-11T05:46:25.347Z,2.40
2019-03-11T05:47:25.336Z,2.50
2019-03-11T05:48:25.361Z,2.20
2019-03-11T05:49:25.336Z,2.60
2019-03-11T05:50:25.305Z,2.20
2019-03-11T05:51:31.597Z,2.50
2019-03-11T05:52:26.281Z,2.10
2019-03-11T05:53:37.398Z,2.00
2019-03-11T05:54:25.262Z,2.60
2019-03-11T05:55:25.257Z,2.40
2019-03-11T05:56:25.244Z,2.00
2019-03-11T05:57:25.235Z,2.30
2019-03-11T05:58:25.230Z,2.20
2019-03-11T05:59:25.233Z,2.00
2019-03-11T06:00:25.201Z,2.40
2019-03-11T06:01:25.199Z,2.70
2019-03-11T06:02:25.182Z,3.30
2019-03-11T06:03:25.171Z,3.10
2019-03-11T06:04:25.166Z,3.10
2019-03-11T06:05:25.199Z,2.80
2019-03-11T06:06:25.145Z,2.80
2019-03-11T06:07:25.141Z,3.10
2019-03-11T06:08:25.120Z,3.40
2019-03-11T06:09:25.115Z,3.30
2019-03-11T06:10:25.101Z,2.80
2019-03-11T06:11:25.126Z,2.80
2019-03-11T06:12:25.082Z,2.90
2019-03-11T06:13:35.321Z,2.60
2019-03-11T06:14:26.062Z,3.10
2019-03-11T06:15:25.054Z,2.60
2019-03-11T06:16:25.039Z,2.50
2019-03-11T06:17:25.407Z,2.50
2019-03-11T06:18:25.024Z,2.90
2019-03-11T06:19:25.024Z,3.00
2019-03-11T06:20:25.004Z,2.50
2019-03-11T06:21:24.991Z,2.50
2019-03-11T06:22:24.976Z,3.10
2019-03-11T06:23:25.004Z,4.20
2019-03-11T06:24:35.141Z,3.10
2019-03-11T06:25:24.949Z,3.40
2019-03-11T06:26:24.938Z,3.20
2019-03-11T06:27:24.928Z,3.50
2019-03-11T06:28:24.922Z,3.10
2019-03-11T06:29:30.391Z,3.50
2019-03-11T06:30:25.903Z,4.40
2019-03-11T06:31:24.889Z,4.10
2019-03-11T06:32:24.882Z,4.00
2019-03-11T06:33:24.873Z,4.40
2019-03-11T06:34:24.897Z,3.90
2019-03-11T06:35:24.886Z,4.10
2019-03-11T06:36:24.837Z,4.20
2019-03-11T06:37:24.834Z,4.10
2019-03-11T06:38:24.829Z,3.70
2019-03-11T06:39:24.805Z,3.60
2019-03-11T06:40:24.797Z,3.60
2019-03-11T06:41:24.820Z,3.30
2019-03-11T06:42:24.777Z,3.20
2019-03-11T06:43:25.400Z,2.80
2019-03-11T06:44:24.761Z,3.00
2019-03-11T06:45:24.759Z,3.00
2019-03-11T06:46:24.738Z,2.80
2019-03-11T06:47:24.731Z,2.50
2019-03-11T06:48:24.711Z,2.70
2019-03-11T06:49:24.703Z,2.80
2019-03-11T06:50:24.692Z,2.70
2019-03-11T06:51:24.692Z,3.10
2019-03-11T06:52:24.713Z,3.40
2019-03-11T06:53:24.668Z,3.40
2019-03-11T06:54:24.653Z,3.20
2019-03-11T06:55:36.025Z,3.70
2019-03-11T06:56:24.630Z,3.70
2019-03-11T06:57:24.620Z,3.20
2019-03-11T06:58:24.629Z,3.30
2019-03-11T06:59:24.601Z,3.30
2019-03-11T07:00:24.593Z,3.30
2019-03-11T07:01:24.587Z,2.90
2019-03-11T07:02:24.576Z,3.50
2019-03-11T07:03:24.563Z,3.00
2019-03-11T07:04:24.591Z,3.30
2019-03-11T07:05:24.546Z,3.10
2019-03-11T07:06:24.527Z,3.10
2019-03-11T07:07:24.520Z,3.30
2019-03-11T07:08:24.525Z,3.10
2019-03-11T07:09:24.541Z,2.70
2019-03-11T07:10:24.523Z,3.10
2019-03-11T07:11:24.480Z,2.80
2019-03-11T07:12:24.486Z,3.20
2019-03-11T07:13:24.463Z,2.40
2019-03-11T07:14:24.451Z,2.40
2019-03-11T07:15:24.437Z,2.70
2019-03-11T07:16:24.441Z,2.40
2019-03-11T07:17:24.413Z,2.80
2019-03-11T07:18:24.408Z,2.90
2019-03-11T07:19:24.398Z,2.80
2019-03-11T07:20:24.393Z,2.40
2019-03-11T07:21:24.381Z,2.70
2019-03-11T07:22:24.385Z,2.70
2019-03-11T07:23:24.374Z,2.30
2019-03-11T07:24:24.340Z,2.80
2019-03-11T07:25:24.335Z,3.00
2019-03-11T07:26:34.299Z,2.30
2019-03-11T07:27:24.326Z,2.90
2019-03-11T07:28:24.420Z,2.80
2019-03-11T07:29:24.288Z,2.50
2019-03-11T07:30:24.278Z,2.60
2019-03-11T07:31:24.270Z,2.40
2019-03-11T07:32:24.261Z,2.60
2019-03-11T07:33:24.252Z,3.40
2019-03-11T07:34:24.279Z,2.90
2019-03-11T07:35:24.230Z,3.70
2019-03-11T07:36:24.220Z,2.80
2019-03-11T07:37:24.206Z,2.20
2019-03-11T07:38:24.201Z,2.20
2019-03-11T07:39:24.191Z,1.90
2019-03-11T07:40:29.547Z,2.30
2019-03-11T07:41:25.163Z,2.10
2019-03-11T07:42:24.154Z,1.90
2019-03-11T07:43:24.145Z,2.20
2019-03-11T07:44:24.135Z,2.20
2019-03-11T07:45:24.129Z,1.90
2019-03-11T07:46:24.128Z,2.00
2019-03-11T07:47:24.100Z,1.90
2019-03-11T07:48:24.092Z,2.20
2019-03-11T07:49:24.183Z,2.20
2019-03-11T07:50:24.134Z,1.90
2019-03-11T07:51:24.095Z,1.60
2019-03-11T07:52:24.052Z,1.70
2019-03-11T07:53:24.041Z,1.70
2019-03-11T07:54:25.254Z,2.00
2019-03-11T07:55:25.024Z,1.80
2019-03-11T07:56:24.008Z,2.00
2019-03-11T07:57:34.469Z,2.00
2019-03-11T07:58:23.986Z,1.70
2019-03-11T07:59:23.973Z,2.00
2019-03-11T08:00:23.965Z,1.90
2019-03-11T08:01:23.953Z,2.00
2019-03-11T08:02:23.944Z,1.90
2019-03-11T08:03:23.977Z,1.90
2019-03-11T08:04:23.929Z,2.00
2019-03-11T08:05:23.908Z,2.10
2019-03-11T08:06:23.901Z,1.80
2019-03-11T08:07:23.895Z,1.90
2019-03-11T08:08:23.884Z,2.00
2019-03-11T08:09:23.903Z,1.90
2019-03-11T08:10:23.857Z,1.70
2019-03-11T08:11:23.848Z,2.00
2019-03-11T08:12:23.836Z,2.20
2019-03-11T08:13:23.832Z,1.90
2019-03-11T08:14:23.814Z,1.80
2019-03-11T08:15:23.819Z,1.80
2019-03-11T08:16:23.790Z,1.90
2019-03-11T08:17:23.778Z,2.00
2019-03-11T08:18:34.178Z,1.90
2019-03-11T08:19:24.753Z,1.90
2019-03-11T08:20:23.748Z,2.00
2019-03-11T08:21:23.773Z,2.00
2019-03-11T08:22:23.733Z,2.00
2019-03-11T08:23:23.718Z,2.00
2019-03-11T08:24:23.701Z,2.00
2019-03-11T08:25:23.691Z,2.00
2019-03-11T08:26:23.692Z,2.40
2019-03-11T08:27:23.675Z,2.50
2019-03-11T08:28:33.644Z,2.20
2019-03-11T08:29:23.653Z,2.40
2019-03-11T08:30:23.643Z,2.40
2019-03-11T08:31:23.637Z,2.50
2019-03-11T08:32:23.658Z,2.20
2019-03-11T08:33:23.608Z,2.30
2019-03-11T08:34:23.614Z,2.40
2019-03-11T08:35:23.580Z,2.40
2019-03-11T08:36:23.576Z,2.20
2019-03-11T08:37:23.561Z,1.90
2019-03-11T08:38:23.589Z,2.10
2019-03-11T08:39:23.544Z,1.90
2019-03-11T08:40:23.540Z,2.10
2019-03-11T08:41:23.524Z,2.10
2019-03-11T08:42:23.509Z,2.00
2019-03-11T08:43:23.503Z,1.90
2019-03-11T08:44:23.528Z,1.90
2019-03-11T08:45:23.482Z,1.90
2019-03-11T08:46:23.466Z,1.90
2019-03-11T08:47:23.461Z,2.10
2019-03-11T08:48:23.453Z,1.90
2019-03-11T08:49:23.436Z,1.70
2019-03-11T08:50:23.466Z,2.10
2019-03-11T08:51:23.424Z,1.50
2019-03-11T08:52:23.429Z,1.60
2019-03-11T08:53:23.393Z,1.80
2019-03-11T08:54:23.386Z,1.50
2019-03-11T08:55:23.367Z,1.40
2019-03-11T08:56:23.402Z,1.50
2019-03-11T08:57:23.375Z,1.30
2019-03-11T08:58:23.338Z,1.40
2019-03-11T08:59:33.396Z,1.60
2019-03-11T09:00:23.313Z,1.50
2019-03-11T09:01:23.308Z,1.80
2019-03-11T09:02:23.332Z,1.40
2019-03-11T09:03:23.282Z,1.30
2019-03-11T09:04:23.272Z,1.20
2019-03-11T09:05:23.265Z,1.40
2019-03-11T09:06:23.255Z,1.30
2019-03-11T09:07:23.243Z,1.50
2019-03-11T09:08:23.237Z,1.20
2019-03-11T09:09:23.222Z,1.40
2019-03-11T09:10:23.207Z,1.50
2019-03-11T09:11:23.207Z,1.40
2019-03-11T09:12:23.203Z,1.70
2019-03-11T09:13:23.220Z,1.40
2019-03-11T09:14:23.188Z,1.50
2019-03-11T09:15:23.179Z,1.50
2019-03-11T09:16:23.151Z,1.60
2019-03-11T09:17:23.135Z,1.60
2019-03-11T09:18:23.127Z,1.20
2019-03-11T09:19:23.155Z,1.80
2019-03-11T09:20:23.108Z,1.40
2019-03-11T09:21:23.094Z,1.50
2019-03-11T09:22:23.091Z,1.60
2019-03-11T09:23:23.167Z,1.50
2019-03-11T09:24:23.061Z,1.40
2019-03-11T09:25:23.093Z,1.40
2019-03-11T09:26:23.098Z,1.60
2019-03-11T09:27:23.037Z,1.40
2019-03-11T09:28:23.099Z,1.40
2019-03-11T09:29:23.018Z,1.70
2019-03-11T09:30:33.507Z,1.60
2019-03-11T09:31:22.989Z,1.60
2019-03-11T09:32:22.985Z,2.00
2019-03-11T09:33:22.973Z,2.00
2019-03-11T09:34:22.969Z,1.50
2019-03-11T09:35:22.958Z,3.30
2019-03-11T09:36:22.968Z,5.60
2019-03-11T09:37:22.936Z,5.20
2019-03-11T09:38:22.945Z,3.00
2019-03-11T09:39:22.914Z,2.20
2019-03-11T09:40:22.903Z,1.90
2019-03-11T09:41:22.895Z,1.90
2019-03-11T09:42:22.922Z,1.90
2019-03-11T09:43:22.868Z,2.10
2019-03-11T09:44:22.862Z,1.90
2019-03-11T09:45:24.205Z,1.90
2019-03-11T09:46:22.836Z,1.50
2019-03-11T09:47:22.840Z,1.70
2019-03-11T09:48:22.909Z,1.70
2019-03-11T09:49:22.814Z,1.80
2019-03-11T09:50:22.801Z,2.00
2019-03-11T09:51:22.788Z,1.90
2019-03-11T09:52:22.782Z,1.90
2019-03-11T09:53:22.772Z,1.70
2019-03-11T09:54:22.803Z,1.80
2019-03-11T09:55:22.751Z,2.00
2019-03-11T09:56:22.740Z,1.80
2019-03-11T09:57:22.732Z,1.90
2019-03-11T09:58:22.721Z,2.00
2019-03-11T09:59:22.788Z,2.30
2019-03-11T10:00:22.724Z,3.30
2019-03-11T10:01:35.122Z,3.90
2019-03-11T10:02:22.690Z,5.00
2019-03-11T10:03:22.671Z,4.30
2019-03-11T10:04:22.663Z,4.50
2019-03-11T10:05:22.646Z,4.10
2019-03-11T10:06:22.680Z,3.60
2019-03-11T10:07:22.630Z,3.80
2019-03-11T10:08:22.759Z,3.70
2019-03-11T10:09:22.611Z,3.10
2019-03-11T10:10:22.602Z,3.20
2019-03-11T10:11:22.592Z,3.40
2019-03-11T10:12:22.628Z,3.80
2019-03-11T10:13:22.585Z,3.70
2019-03-11T10:14:22.571Z,3.00
2019-03-11T10:15:22.561Z,3.20
2019-03-11T10:16:22.548Z,3.20
2019-03-11T10:17:22.537Z,3.50
2019-03-11T10:18:22.549Z,3.40
2019-03-11T10:19:22.532Z,3.00
2019-03-11T10:20:22.515Z,3.20
2019-03-11T10:21:22.505Z,3.10
2019-03-11T10:22:22.501Z,2.90
2019-03-11T10:23:31.738Z,3.00
2019-03-11T10:24:23.511Z,3.20
2019-03-11T10:25:22.468Z,3.10
2019-03-11T10:26:22.455Z,3.60
2019-03-11T10:27:22.448Z,3.00
2019-03-11T10:28:22.437Z,3.60
2019-03-11T10:29:22.433Z,3.20
2019-03-11T10:30:22.461Z,2.90
2019-03-11T10:31:22.406Z,3.30
2019-03-11T10:32:32.829Z,2.60
2019-03-11T10:33:22.394Z,2.80
2019-03-11T10:34:22.377Z,2.90
2019-03-11T10:35:33.470Z,3.20
2019-03-11T10:36:23.392Z,3.10
2019-03-11T10:37:22.348Z,3.30
2019-03-11T10:38:22.343Z,3.10
2019-03-11T10:39:22.327Z,3.60
2019-03-11T10:40:22.316Z,2.80
2019-03-11T10:41:22.309Z,3.50
2019-03-11T10:42:22.342Z,3.40
2019-03-11T10:43:22.320Z,3.10
2019-03-11T10:44:22.275Z,3.50
2019-03-11T10:45:30.978Z,3.50
2019-03-11T10:46:23.250Z,3.50
2019-03-11T10:47:22.244Z,3.60
2019-03-11T10:48:22.257Z,3.60
2019-03-11T10:49:22.235Z,3.80
2019-03-11T10:50:22.212Z,3.80
2019-03-11T10:51:22.201Z,4.10
2019-03-11T10:52:22.193Z,4.10
2019-03-11T10:53:22.267Z,3.90
2019-03-11T10:54:22.168Z,4.00
2019-03-11T10:55:22.167Z,3.90
2019-03-11T10:56:22.176Z,3.60
2019-03-11T10:57:22.189Z,4.20
2019-03-11T10:58:22.144Z,4.20
2019-03-11T10:59:22.597Z,4.30
2019-03-11T11:00:22.578Z,4.40
2019-03-11T11:01:22.090Z,3.90
2019-03-11T11:02:22.088Z,4.00
2019-03-11T11:03:31.953Z,4.10
2019-03-11T11:04:22.066Z,4.30
2019-03-11T11:05:22.084Z,4.30
2019-03-11T11:06:22.039Z,4.50
2019-03-11T11:07:22.026Z,4.10
2019-03-11T11:08:22.024Z,4.00
2019-03-11T11:09:22.010Z,3.30
2019-03-11T11:10:21.994Z,3.60
2019-03-11T11:11:21.996Z,4.00
2019-03-11T11:12:21.986Z,3.90
2019-03-11T11:13:21.965Z,4.10
2019-03-11T11:14:21.953Z,4.30
2019-03-11T11:15:21.943Z,4.40
2019-03-11T11:16:21.970Z,4.10
2019-03-11T11:17:21.919Z,4.60
2019-03-11T11:18:21.908Z,4.40
2019-03-11T11:19:21.905Z,3.60
2019-03-11T11:20:21.894Z,3.70
2019-03-11T11:21:21.881Z,3.80
2019-03-11T11:22:22.015Z,3.10
2019-03-11T11:23:21.853Z,3.70
2019-03-11T11:24:21.841Z,3.70
2019-03-11T11:25:21.839Z,3.40
2019-03-11T11:26:21.819Z,3.20
2019-03-11T11:27:21.808Z,3.50
2019-03-11T11:28:21.841Z,3.40
2019-03-11T11:29:21.792Z,3.90
2019-03-11T11:30:21.782Z,3.60
2019-03-11T11:31:21.772Z,3.70
2019-03-11T11:32:21.757Z,4.30
2019-03-11T11:33:21.744Z,3.80
2019-03-11T11:34:33.149Z,3.80
2019-03-11T11:35:21.722Z,3.80
2019-03-11T11:36:21.716Z,3.20
2019-03-11T11:37:21.707Z,3.30
2019-03-11T11:38:21.696Z,2.80
2019-03-11T11:39:21.683Z,3.10
2019-03-11T11:40:21.682Z,3.30
2019-03-11T11:41:21.667Z,3.40
2019-03-11T11:42:21.658Z,3.10
2019-03-11T11:43:21.643Z,3.20
2019-03-11T11:44:21.630Z,3.40
2019-03-11T11:45:21.644Z,3.10
2019-03-11T11:46:21.611Z,3.00
2019-03-11T11:47:21.615Z,2.70
2019-03-11T11:48:21.588Z,2.60
2019-03-11T11:49:21.576Z,2.50
2019-03-11T11:50:21.568Z,2.60
2019-03-11T11:51:21.593Z,2.60
2019-03-11T11:52:21.546Z,3.10
2019-03-11T11:53:21.538Z,2.80
2019-03-11T11:54:21.531Z,2.70
2019-03-11T11:55:21.518Z,3.10
2019-03-11T11:56:21.503Z,3.90
2019-03-11T11:57:21.535Z,4.10
2019-03-11T11:58:21.480Z,3.20
2019-03-11T11:59:21.477Z,3.30
2019-03-11T12:00:21.460Z,2.60
2019-03-11T12:01:21.449Z,3.10
2019-03-11T12:02:21.446Z,3.70
2019-03-11T12:03:21.445Z,3.00
2019-03-11T12:04:21.421Z,2.80
2019-03-11T12:05:31.875Z,2.30
2019-03-11T12:06:21.395Z,2.00
2019-03-11T12:07:21.412Z,1.90
2019-03-11T12:08:21.422Z,2.30
2019-03-11T12:09:21.365Z,1.70
2019-03-11T12:10:21.353Z,1.70
2019-03-11T12:11:21.348Z,1.60
2019-03-11T12:12:21.334Z,1.70
2019-03-11T12:13:22.140Z,1.80
2019-03-11T12:14:21.329Z,1.90
2019-03-11T12:15:21.307Z,1.50
2019-03-11T12:16:21.302Z,1.60
2019-03-11T12:17:23.409Z,1.30
2019-03-11T12:18:21.275Z,1.30
2019-03-11T12:19:21.260Z,1.50
2019-03-11T12:20:21.291Z,1.40
2019-03-11T12:21:21.253Z,1.50
2019-03-11T12:22:21.227Z,1.40
2019-03-11T12:23:21.215Z,1.40
2019-03-11T12:24:21.210Z,1.40
2019-03-11T12:25:21.196Z,1.30
2019-03-11T12:26:21.242Z,1.40
2019-03-11T12:27:21.174Z,1.50
2019-03-11T12:28:21.161Z,1.40
2019-03-11T12:29:21.162Z,1.50
2019-03-11T12:30:21.140Z,1.40
2019-03-11T12:31:21.807Z,1.50
2019-03-11T12:32:21.154Z,1.50
2019-03-11T12:33:21.120Z,1.40
2019-03-11T12:34:21.098Z,1.70
2019-03-11T12:35:21.095Z,1.50
2019-03-11T12:36:31.203Z,1.50
2019-03-11T12:37:21.066Z,1.40
2019-03-11T12:38:21.060Z,1.40
2019-03-11T12:39:21.051Z,1.50
2019-03-11T12:40:21.040Z,1.50
2019-03-11T12:41:21.031Z,1.10
2019-03-11T12:42:21.095Z,1.20
2019-03-11T12:43:21.007Z,1.10
2019-03-11T12:44:20.998Z,1.30
2019-03-11T12:45:20.997Z,1.30
2019-03-11T12:46:20.969Z,1.40
2019-03-11T12:47:20.965Z,1.10
2019-03-11T12:48:20.970Z,1.30
2019-03-11T12:49:20.977Z,1.10
2019-03-11T12:50:20.950Z,1.40
2019-03-11T12:51:20.919Z,1.20
2019-03-11T12:52:20.910Z,1.30
2019-03-11T12:53:20.916Z,1.00
2019-03-11T12:54:20.890Z,1.10
2019-03-11T12:55:21.498Z,1.30
2019-03-11T12:56:20.880Z,1.10
2019-03-11T12:57:20.855Z,1.20
2019-03-11T12:58:20.849Z,1.20
2019-03-11T12:59:20.842Z,1.10
2019-03-11T13:00:20.825Z,1.30
2019-03-11T13:01:20.844Z,1.20
2019-03-11T13:02:20.804Z,1.40
2019-03-11T13:03:20.785Z,1.30
2019-03-11T13:04:20.780Z,1.20
2019-03-11T13:05:20.804Z,1.20
2019-03-11T13:06:20.770Z,1.20
2019-03-11T13:07:31.705Z,1.40
2019-03-11T13:08:20.739Z,1.40
2019-03-11T13:09:20.739Z,1.20
2019-03-11T13:10:20.713Z,1.40
2019-03-11T13:11:20.703Z,1.30
2019-03-11T13:12:20.715Z,1.40
2019-03-11T13:13:20.687Z,1.00
2019-03-11T13:14:20.674Z,1.20
2019-03-11T13:15:20.657Z,1.10
2019-03-11T13:16:20.648Z,1.20
2019-03-11T13:17:20.635Z,1.10
2019-03-11T13:18:20.667Z,1.20